Seattle, Washington
Current Conditions -  °F | °C
As of 4:53 PM on Monday 20 Oct 2014 (Local Time) from KBFI Reporting Station
Scattered Clouds Scattered Clouds  
Wind Chill: 18°   Ceiling: Unl
Heat Index: 18°   Visibility: 10mi
Dew Point: 12°   Wind: 9mph
Humidity: 67%   Direction: 160°SSE
Pressure: 29.75"   Gusts: NA
Location:  47.6°N, 122.32°W
Report Text: KBFI 202353Z 16008KT 10SM SCT030 SCT100 18/12 A2975 RMK AO2 RAB12E21 SLP075 P0000 60000 T01780117 10189 20167 56002
Loading
Personal Weather Stations






























Interactive Weather Map New forecast layout! Learn more

10-Day Weather Forecast

Advertisements
Track Severe Weather on mobile